Time;durP1;ratioP1;P1;durP2;ratioP2;P2;SDS_P1;SDS_P2;PMS_P1;PMS_P2;Temp;Humidity;BMP_temperature;BMP_pressure;BME280_temperature;BME280_humidity;BME280_pressure;Samples;Min_cycle;Max_cycle;Signal;HPM_P1;HPM_P2
2023/12/15 00:04:20;;;;;;;13.38;4.57;;;;;;;4.87;64.95;101091.72;10515052;28;20184;-64
2023/12/15 00:09:23;;;;;;;10.50;4.30;;;;;;;4.89;65.05;101096.88;10514195;28;20036;-64
2023/12/15 00:14:25;;;;;;;9.38;4.15;;;;;;;4.89;65.17;101105.53;10502254;28;20109;-64
2023/12/15 00:19:27;;;;;;;9.73;3.90;;;;;;;4.95;65.15;101112.31;10522701;28;20055;-65
2023/12/15 00:24:29;;;;;;;9.10;3.88;;;;;;;4.92;64.91;101118.44;10523219;28;20512;-65
2023/12/15 00:29:31;;;;;;;8.35;3.95;;;;;;;4.96;65.10;101124.41;10496774;28;20042;-65
2023/12/15 00:34:33;;;;;;;9.98;4.50;;;;;;;4.94;65.24;101126.19;10522133;28;20125;-65
2023/12/15 00:39:37;;;;;;;7.78;3.75;;;;;;;4.95;65.19;101125.28;10521562;28;20419;-66
2023/12/15 00:44:39;;;;;;;8.40;4.45;;;;;;;4.95;65.18;101123.56;10522077;28;20476;-65
2023/12/15 00:49:42;;;;;;;11.05;3.50;;;;;;;5.02;65.07;101138.13;10504013;28;20120;-63
2023/12/15 00:54:44;;;;;;;10.75;4.45;;;;;;;4.95;64.91;101140.84;10503637;28;20060;-65
2023/12/15 00:59:46;;;;;;;7.32;3.70;;;;;;;4.99;65.03;101147.69;10520961;28;20058;-65
2023/12/15 01:04:48;;;;;;;7.45;3.47;;;;;;;5.06;64.86;101146.69;10520881;28;20055;-65
2023/12/15 01:09:50;;;;;;;8.55;3.90;;;;;;;5.05;65.13;101147.56;10500762;28;20111;-65
2023/12/15 01:14:52;;;;;;;10.15;4.68;;;;;;;5.00;65.12;101164.97;10520942;28;20116;-65
2023/12/15 01:19:54;;;;;;;8.88;3.95;;;;;;;5.05;65.20;101176.09;10502014;28;20579;-65
2023/12/15 01:24:56;;;;;;;7.40;3.72;;;;;;;5.16;65.32;101181.94;10519636;28;20055;-64
2023/12/15 01:29:58;;;;;;;14.00;5.25;;;;;;;5.11;64.96;101175.97;10520897;28;20457;-65
2023/12/15 01:35:00;;;;;;;8.82;4.10;;;;;;;5.10;65.06;101176.88;10502474;28;20094;-65
2023/12/15 01:40:02;;;;;;;10.73;5.30;;;;;;;5.07;65.15;101185.56;10519292;28;20047;-65
2023/12/15 01:45:05;;;;;;;10.13;4.22;;;;;;;5.07;64.99;101198.53;10519644;28;20052;-65
2023/12/15 01:50:08;;;;;;;8.02;3.88;;;;;;;4.94;65.19;101206.53;10518243;28;20052;-65
2023/12/15 01:55:10;;;;;;;7.70;3.67;;;;;;;4.93;65.39;101210.00;10500821;28;20155;-64
2023/12/15 02:00:13;;;;;;;6.53;3.72;;;;;;;4.98;65.35;101221.16;10518463;28;20135;-65
2023/12/15 02:05:15;;;;;;;9.98;4.22;;;;;;;5.00;65.29;101227.19;10517258;28;20101;-65
2023/12/15 02:10:17;;;;;;;8.73;4.55;;;;;;;4.92;65.47;101226.44;10519024;28;20205;-65
2023/12/15 02:15:19;;;;;;;8.48;3.85;;;;;;;4.93;65.35;101233.31;10497621;28;20234;-65
2023/12/15 02:20:21;;;;;;;6.80;3.55;;;;;;;4.87;65.36;101236.88;10517730;28;20052;-65
2023/12/15 02:25:23;;;;;;;7.30;3.80;;;;;;;4.79;65.36;101245.66;10500654;28;20622;-65
2023/12/15 02:30:25;;;;;;;9.82;4.38;;;;;;;4.70;65.50;101234.53;10517402;28;20305;-65
2023/12/15 02:35:27;;;;;;;9.73;4.90;;;;;;;4.52;65.55;101245.19;10498360;28;20139;-65
2023/12/15 02:40:29;;;;;;;7.22;3.75;;;;;;;4.23;65.73;101244.72;10517558;28;21065;-65
2023/12/15 02:45:31;;;;;;;10.15;4.05;;;;;;;4.01;66.17;101242.41;10517028;28;20101;-65
2023/12/15 02:50:33;;;;;;;8.65;4.03;;;;;;;4.02;66.37;101234.66;10517290;28;20048;-64
2023/12/15 02:55:35;;;;;;;8.45;3.95;;;;;;;4.05;66.40;101244.94;10517084;28;20134;-64
2023/12/15 03:00:37;;;;;;;8.82;4.13;;;;;;;4.18;66.48;101251.69;10516673;28;20135;-65
2023/12/15 03:05:39;;;;;;;7.32;3.67;;;;;;;4.31;66.30;101268.78;10514592;28;20040;-65
2023/12/15 03:10:42;;;;;;;9.40;3.72;;;;;;;4.34;66.11;101257.53;10516221;28;20119;-65
2023/12/15 03:15:44;;;;;;;10.45;3.88;;;;;;;4.31;66.27;101260.16;10515638;28;20071;-65
2023/12/15 03:20:46;;;;;;;9.93;3.75;;;;;;;4.35;66.19;101264.44;10516316;28;20047;-64
2023/12/15 03:25:47;;;;;;;9.80;4.13;;;;;;;4.35;66.25;101274.78;10515247;28;20500;-65
2023/12/15 03:30:49;;;;;;;7.65;3.90;;;;;;;4.33;66.31;101276.53;10515909;28;20048;-64
2023/12/15 03:35:52;;;;;;;8.10;4.57;;;;;;;4.26;66.39;101287.84;10514518;28;20100;-64
2023/12/15 03:40:54;;;;;;;8.50;4.00;;;;;;;4.30;66.47;101292.09;10515114;28;20472;-65
2023/12/15 03:45:56;;;;;;;8.70;3.88;;;;;;;4.35;66.51;101301.53;10514855;28;20063;-64
2023/12/15 03:50:59;;;;;;;13.40;4.97;;;;;;;4.37;66.29;101304.94;10530804;28;20044;-65
2023/12/15 03:56:01;;;;;;;9.48;4.45;;;;;;;4.33;66.38;101298.09;10515420;28;20052;-64
2023/12/15 04:01:04;;;;;;;10.90;4.78;;;;;;;4.46;66.61;101304.84;10514523;28;20052;-65
2023/12/15 04:06:08;;;;;;;9.73;4.65;;;;;;;4.52;66.28;101301.31;10514539;28;20048;-63
2023/12/15 04:11:10;;;;;;;8.85;4.70;;;;;;;4.56;66.32;101311.63;10514422;28;20058;-64
2023/12/15 04:16:12;;;;;;;8.98;4.70;;;;;;;4.51;66.03;101308.25;10514610;28;20758;-64
2023/12/15 04:21:14;;;;;;;11.52;4.47;;;;;;;4.49;66.28;101314.31;10514953;28;20052;-64
2023/12/15 04:26:18;;;;;;;10.90;4.40;;;;;;;4.51;66.16;101316.03;10513224;28;20055;-64
2023/12/15 04:31:20;;;;;;;11.77;4.30;;;;;;;4.49;66.07;101330.72;10530514;28;20111;-63
2023/12/15 04:36:22;;;;;;;9.95;4.65;;;;;;;4.56;66.07;101334.94;10513184;28;20048;-64
2023/12/15 04:41:25;;;;;;;11.05;4.30;;;;;;;4.65;66.11;101339.16;10514107;28;20044;-63
2023/12/15 04:46:29;;;;;;;7.22;3.30;;;;;;;4.79;65.81;101346.72;10514045;28;20484;-63
2023/12/15 04:51:31;;;;;;;9.63;4.75;;;;;;;4.73;65.79;101347.69;10513309;28;20083;-63
2023/12/15 04:56:33;;;;;;;10.93;3.83;;;;;;;4.69;65.98;101358.97;10494510;28;20311;-64
2023/12/15 05:01:35;;;;;;;9.23;4.45;;;;;;;4.76;65.92;101360.56;10518322;28;20055;-63
2023/12/15 05:06:37;;;;;;;9.35;3.83;;;;;;;4.79;65.63;101375.22;10520880;28;20082;-63
2023/12/15 05:11:40;;;;;;;7.63;4.15;;;;;;;4.73;65.58;101376.19;10520749;28;20072;-63
2023/12/15 05:16:42;;;;;;;7.82;4.30;;;;;;;4.75;65.85;101373.56;10520733;28;20063;-64
2023/12/15 05:21:44;;;;;;;8.30;4.00;;;;;;;4.72;65.85;101383.09;10520612;28;20044;-63
2023/12/15 05:26:46;;;;;;;9.80;3.90;;;;;;;4.69;65.71;101390.91;10519773;28;20587;-64
2023/12/15 05:31:48;;;;;;;10.27;4.78;;;;;;;4.72;66.06;101396.06;10519981;28;20048;-64
2023/12/15 05:36:50;;;;;;;7.75;4.18;;;;;;;4.59;66.15;101404.00;10497828;28;20052;-64
2023/12/15 05:41:52;;;;;;;8.18;3.92;;;;;;;4.65;66.19;101391.84;10501964;28;20109;-63
2023/12/15 05:46:54;;;;;;;8.45;3.67;;;;;;;4.59;66.04;101397.09;10517899;28;20052;-64
2023/12/15 05:51:56;;;;;;;10.10;4.45;;;;;;;4.56;66.41;101394.53;10519605;28;20044;-63
2023/12/15 05:56:58;;;;;;;10.65;4.78;;;;;;;4.72;66.24;101409.91;10496819;28;20052;-63
2023/12/15 06:02:00;;;;;;;9.48;4.25;;;;;;;4.84;66.11;101409.75;10518780;28;20208;-63
2023/12/15 06:07:02;;;;;;;9.95;4.38;;;;;;;4.88;66.05;101422.66;10518611;28;20571;-64
2023/12/15 06:12:05;;;;;;;6.47;3.83;;;;;;;4.89;65.99;101420.88;10483613;28;20530;-64
2023/12/15 06:17:07;;;;;;;8.57;4.15;;;;;;;4.85;66.12;101427.84;10518314;28;20044;-63
2023/12/15 06:22:10;;;;;;;6.38;3.70;;;;;;;4.74;66.29;101428.88;10517927;28;20109;-64
2023/12/15 06:27:12;;;;;;;7.95;3.75;;;;;;;4.74;66.48;101418.50;10517972;28;20052;-64
2023/12/15 06:32:15;;;;;;;7.18;3.10;;;;;;;4.79;66.47;101416.69;10517089;28;20484;-63
2023/12/15 06:37:18;;;;;;;7.32;3.63;;;;;;;4.87;66.01;101418.31;10517261;28;20134;-64
2023/12/15 06:42:20;;;;;;;7.93;4.13;;;;;;;4.90;66.06;101453.72;10517673;28;20079;-64
2023/12/15 06:47:22;;;;;;;9.68;3.78;;;;;;;4.92;66.16;101465.81;10517026;28;20040;-64
2023/12/15 06:52:24;;;;;;;6.63;3.53;;;;;;;5.01;65.86;101464.81;10516033;28;20051;-64
2023/12/15 06:57:26;;;;;;;5.90;3.38;;;;;;;4.86;66.02;101470.19;10516830;28;20114;-64
2023/12/15 07:02:28;;;;;;;7.65;3.28;;;;;;;4.70;66.69;101457.41;10515968;28;20044;-64
2023/12/15 07:07:30;;;;;;;7.75;3.88;;;;;;;4.81;66.72;101457.28;10515672;28;20387;-64
2023/12/15 07:12:32;;;;;;;13.60;4.55;;;;;;;5.06;66.17;101463.03;10497696;28;20039;-65
2023/12/15 07:17:34;;;;;;;6.45;3.38;;;;;;;5.02;65.98;101477.78;10498294;28;20048;-64
2023/12/15 07:22:37;;;;;;;10.05;4.25;;;;;;;4.97;66.18;101481.28;10514449;28;20421;-65
2023/12/15 07:27:39;;;;;;;6.78;3.72;;;;;;;4.99;66.25;101476.94;10481677;28;20048;-65
2023/12/15 07:32:41;;;;;;;7.80;3.72;;;;;;;5.21;66.24;101493.94;10515329;28;20051;-64
2023/12/15 07:37:43;;;;;;;7.93;3.83;;;;;;;5.36;65.80;101506.72;10515260;28;20044;-64
2023/12/15 07:42:45;;;;;;;7.05;3.72;;;;;;;5.49;65.76;101513.47;10514758;28;20116;-64
2023/12/15 07:47:47;;;;;;;8.88;4.40;;;;;;;5.49;65.73;101534.22;10515209;28;20044;-64
2023/12/15 07:52:49;;;;;;;8.80;3.78;;;;;;;5.35;66.21;101539.56;10515354;28;20158;-64
2023/12/15 07:57:51;;;;;;;7.30;3.95;;;;;;;5.38;66.14;101539.53;10514798;28;20076;-63
2023/12/15 08:02:53;;;;;;;11.18;4.95;;;;;;;5.11;66.90;101545.06;10514724;28;20056;-63
2023/12/15 08:07:55;;;;;;;8.50;4.13;;;;;;;4.99;67.49;101554.72;10515165;28;20048;-63
2023/12/15 08:12:58;;;;;;;11.13;4.47;;;;;;;5.17;67.27;101531.16;10512565;28;20050;-64
2023/12/15 08:18:00;;;;;;;9.40;4.10;;;;;;;5.35;66.95;101538.72;10530227;28;20044;-63
2023/12/15 08:23:05;;;;;;;8.30;3.58;;;;;;;5.38;67.08;101543.88;10514674;28;20048;-63
2023/12/15 08:28:09;;;;;;;8.45;3.70;;;;;;;5.27;67.26;101550.91;10512141;28;20040;-64
2023/12/15 08:33:11;;;;;;;8.95;4.00;;;;;;;5.28;67.51;101561.28;10513175;28;20050;-64
2023/12/15 08:38:14;;;;;;;8.40;4.47;;;;;;;5.26;67.76;101575.16;10504321;28;20051;-64
2023/12/15 08:43:16;;;;;;;12.40;4.65;;;;;;;5.53;67.46;101580.00;10485860;28;20056;-64
2023/12/15 08:48:19;;;;;;;14.00;3.80;;;;;;;5.69;67.08;101596.22;10520351;28;20097;-64
2023/12/15 08:53:21;;;;;;;7.38;3.95;;;;;;;5.78;66.88;101593.50;10516813;28;20040;-64
2023/12/15 08:58:24;;;;;;;8.50;3.63;;;;;;;5.79;67.00;101597.81;10515275;28;20628;-64
2023/12/15 09:03:27;;;;;;;6.85;3.63;;;;;;;5.84;66.86;101607.25;10513643;28;20044;-64
2023/12/15 09:08:29;;;;;;;9.23;3.67;;;;;;;5.93;66.92;101627.03;10511303;28;20518;-64
2023/12/15 09:13:33;;;;;;;7.22;3.65;;;;;;;6.02;66.53;101638.16;10516339;28;20123;-63
2023/12/15 09:18:36;;;;;;;8.65;4.40;;;;;;;6.15;66.53;101641.44;10506879;28;20044;-65
2023/12/15 09:23:38;;;;;;;9.93;4.07;;;;;;;6.25;66.43;101648.25;10514774;28;21348;-65
2023/12/15 09:28:40;;;;;;;7.45;3.80;;;;;;;6.44;66.38;101664.41;10498523;28;20051;-64
2023/12/15 09:33:42;;;;;;;6.53;3.55;;;;;;;6.49;66.25;101663.47;10515017;28;20556;-64
2023/12/15 09:38:44;;;;;;;6.88;3.45;;;;;;;6.61;66.09;101671.09;10515363;28;20040;-65
2023/12/15 09:43:46;;;;;;;8.45;3.83;;;;;;;6.73;65.99;101675.22;10515136;28;20048;-64
2023/12/15 09:48:49;;;;;;;8.15;4.13;;;;;;;6.79;65.98;101685.53;10513536;28;20044;-64
2023/12/15 09:53:52;;;;;;;7.78;3.95;;;;;;;6.81;66.01;101692.44;10497019;28;20173;-64
2023/12/15 09:58:54;;;;;;;5.97;3.17;;;;;;;6.81;66.00;101694.16;10530035;27;20425;-64
2023/12/15 10:03:56;;;;;;;6.63;3.38;;;;;;;6.82;66.00;101695.84;10496074;28;20143;-64
2023/12/15 10:08:59;;;;;;;5.00;2.95;;;;;;;7.02;65.74;101704.22;10514851;28;20048;-64
2023/12/15 10:14:04;;;;;;;6.65;2.90;;;;;;;7.06;65.82;101701.50;10514066;28;20400;-66
2023/12/15 10:19:09;;;;;;;5.82;2.80;;;;;;;7.17;65.78;101715.19;10511248;28;20199;-66
2023/12/15 10:24:18;;;;;;;7.13;3.05;;;;;;;7.22;65.37;101715.13;10495871;28;20126;-67
2023/12/15 10:29:23;;;;;;;7.88;3.80;;;;;;;7.21;65.73;101713.41;10496187;28;20385;-66
2023/12/15 10:34:27;;;;;;;5.88;3.25;;;;;;;7.04;66.00;101734.50;10513454;28;20070;-67
2023/12/15 10:39:29;;;;;;;5.03;2.75;;;;;;;7.02;66.26;101733.66;10508979;28;20043;-68
2023/12/15 10:44:34;;;;;;;5.28;2.67;;;;;;;7.01;66.12;101729.38;10511965;28;20670;-67
2023/12/15 10:49:37;;;;;;;5.43;2.78;;;;;;;6.94;66.35;101737.28;10513628;28;20080;-67
2023/12/15 10:55:03;;;;;;;6.82;2.88;;;;;;;6.95;66.52;101733.81;10492240;28;20358;-67
2023/12/15 11:00:07;;;;;;;4.45;2.40;;;;;;;6.98;66.56;101733.72;10493706;28;20143;-67
2023/12/15 11:05:10;;;;;;;4.90;2.85;;;;;;;7.17;66.34;101735.16;10510295;28;20076;-68
2023/12/15 11:10:12;;;;;;;5.95;3.10;;;;;;;7.46;66.08;101751.13;10510560;28;20633;-67
2023/12/15 11:15:20;;;;;;;4.68;2.72;;;;;;;7.69;65.40;101748.09;10493207;28;20415;-67
2023/12/15 11:20:24;;;;;;;6.15;3.13;;;;;;;7.60;65.59;101756.94;10509378;28;20214;-67
2023/12/15 11:25:32;;;;;;;5.70;3.13;;;;;;;7.60;65.76;101756.94;10511922;28;20134;-66
2023/12/15 11:30:37;;;;;;;5.43;2.85;;;;;;;7.82;65.70;101742.59;10511617;28;20052;-67
2023/12/15 11:35:40;;;;;;;6.78;3.58;;;;;;;8.04;65.42;101750.84;10510151;28;20055;-67
2023/12/15 11:40:43;;;;;;;4.22;2.25;;;;;;;8.12;65.07;101751.56;10511834;28;20135;-67
2023/12/15 11:45:46;;;;;;;4.25;2.17;;;;;;;8.15;65.20;101761.09;10510206;28;20055;-67
2023/12/15 11:50:48;;;;;;;5.57;2.83;;;;;;;8.09;64.87;101766.38;10510588;28;20128;-67
2023/12/15 11:55:51;;;;;;;6.30;2.78;;;;;;;7.98;65.29;101762.25;10509389;28;20081;-67
2023/12/15 12:00:54;;;;;;;5.45;2.90;;;;;;;7.87;65.34;101766.84;10509636;28;20431;-66
2023/12/15 12:05:57;;;;;;;4.38;2.25;;;;;;;7.77;65.52;101772.25;10492994;28;20419;-67
2023/12/15 12:11:00;;;;;;;4.13;2.20;;;;;;;7.80;65.52;101765.22;10499844;28;20054;-67
2023/12/15 12:16:06;;;;;;;6.68;2.67;;;;;;;7.75;65.73;101774.84;10519523;28;20062;-67
2023/12/15 12:21:08;;;;;;;4.38;2.10;;;;;;;7.81;65.79;101769.53;10516319;28;20217;-67
2023/12/15 12:26:12;;;;;;;4.75;2.78;;;;;;;7.98;65.33;101774.41;10517689;28;20071;-67
2023/12/15 12:31:16;;;;;;;4.13;2.47;;;;;;;7.92;65.40;101783.22;10517357;28;20648;-67
2023/12/15 12:36:18;;;;;;;5.97;2.60;;;;;;;7.96;65.29;101791.81;10499510;28;20155;-67
2023/12/15 12:41:20;;;;;;;5.75;2.50;;;;;;;7.86;65.60;101778.13;10512073;28;20060;-66
2023/12/15 12:46:23;;;;;;;5.18;2.33;;;;;;;7.80;65.53;101780.84;10516356;28;20064;-67
2023/12/15 12:51:25;;;;;;;3.08;1.85;;;;;;;7.87;65.66;101789.41;10518070;28;20538;-66
2023/12/15 12:56:27;;;;;;;4.38;1.95;;;;;;;7.81;65.65;101786.94;10497329;28;20036;-67
2023/12/15 13:01:29;;;;;;;3.95;2.13;;;;;;;7.89;65.57;101793.72;10517258;28;20048;-66
2023/12/15 13:06:31;;;;;;;5.50;2.40;;;;;;;7.91;65.52;101804.97;10515178;28;20127;-66
2023/12/15 13:11:33;;;;;;;4.43;2.20;;;;;;;7.87;65.74;101812.84;10498750;28;20145;-67
2023/12/15 13:16:35;;;;;;;4.38;2.10;;;;;;;7.88;65.64;101818.03;10476590;28;20055;-66
2023/12/15 13:21:38;;;;;;;3.70;1.92;;;;;;;7.96;65.50;101810.06;10512872;28;20048;-67
2023/12/15 13:26:40;;;;;;;3.88;2.20;;;;;;;8.09;65.58;101813.28;10531189;28;20568;-67
2023/12/15 13:31:42;;;;;;;4.00;1.85;;;;;;;8.08;65.58;101811.59;10515951;28;20044;-67
2023/12/15 13:36:44;;;;;;;3.90;2.00;;;;;;;8.12;65.59;101800.25;10513637;28;20826;-68
2023/12/15 13:41:48;;;;;;;4.85;1.85;;;;;;;8.26;65.47;101798.22;10514916;28;20059;-67
2023/12/15 13:46:52;;;;;;;5.43;2.17;;;;;;;8.28;65.56;101801.66;10514750;28;20499;-68
2023/12/15 13:51:54;;;;;;;3.22;2.00;;;;;;;8.37;65.28;101804.06;10517175;28;20093;-66
2023/12/15 13:57:01;;;;;;;4.72;2.08;;;;;;;8.38;65.58;101811.00;10494927;28;20047;-67
2023/12/15 14:02:03;;;;;;;4.57;2.33;;;;;;;8.41;65.42;101803.09;10512900;28;20055;-67
2023/12/15 14:07:06;;;;;;;3.58;2.25;;;;;;;8.48;65.36;101807.31;10488701;28;20484;-67
2023/12/15 14:12:09;;;;;;;4.00;2.10;;;;;;;8.48;65.33;101802.09;10505698;28;20044;-67
2023/12/15 14:17:11;;;;;;;3.75;2.00;;;;;;;8.51;65.22;101781.16;10492480;28;20125;-67
2023/12/15 14:22:15;;;;;;;3.45;2.03;;;;;;;8.53;65.12;101777.63;10497684;28;20559;-67
2023/12/15 14:27:18;;;;;;;3.55;2.30;;;;;;;8.49;65.14;101793.34;10506807;28;20043;-67
2023/12/15 14:32:21;;;;;;;4.55;1.92;;;;;;;8.51;65.07;101799.41;10510232;28;20577;-67
2023/12/15 14:37:23;;;;;;;6.97;2.22;;;;;;;8.47;65.16;101816.88;10486239;28;20866;-67
2023/12/15 14:42:25;;;;;;;5.15;2.53;;;;;;;8.45;65.10;101813.44;10507500;28;20412;-67
2023/12/15 14:47:28;;;;;;;8.13;2.33;;;;;;;8.23;65.23;101842.56;10508103;28;20040;-66
2023/12/15 14:52:30;;;;;;;4.50;2.33;;;;;;;8.04;65.50;101855.94;10508139;28;20052;-67
2023/12/15 14:57:32;;;;;;;4.65;2.38;;;;;;;8.03;65.44;101862.03;10511713;28;20104;-67
2023/12/15 15:02:34;;;;;;;5.80;2.40;;;;;;;7.94;65.68;101863.94;10508288;28;20048;-67
2023/12/15 15:07:37;;;;;;;10.13;4.28;;;;;;;7.91;65.91;101856.19;10509209;28;20044;-67
2023/12/15 15:12:39;;;;;;;5.50;3.20;;;;;;;7.99;65.68;101847.34;10506151;28;20040;-67
2023/12/15 15:17:42;;;;;;;7.22;2.75;;;;;;;7.98;65.69;101847.38;10489753;28;20062;-68
2023/12/15 15:22:44;;;;;;;7.22;3.72;;;;;;;7.91;65.72;101862.28;10508754;28;20077;-66
2023/12/15 15:27:47;;;;;;;8.20;3.17;;;;;;;7.80;66.00;101872.00;10510310;28;20123;-66
2023/12/15 15:32:52;;;;;;;5.85;2.92;;;;;;;7.62;66.32;101869.72;10511427;28;20109;-66
2023/12/15 15:37:55;;;;;;;3.92;1.98;;;;;;;7.53;66.49;101885.50;10509612;28;20160;-66
2023/12/15 15:42:57;;;;;;;9.65;2.75;;;;;;;7.58;66.56;101904.53;10511482;28;20090;-65
2023/12/15 15:48:01;;;;;;;4.07;2.72;;;;;;;7.72;66.24;101905.16;10492755;28;20411;-65
2023/12/15 15:53:04;;;;;;;5.50;2.40;;;;;;;7.64;66.36;101914.84;10510122;28;20044;-65
2023/12/15 15:58:06;;;;;;;3.97;2.20;;;;;;;7.59;66.30;101911.44;10511123;28;20055;-66
2023/12/15 16:03:08;;;;;;;4.22;2.08;;;;;;;7.52;66.58;101916.75;10511376;28;20036;-67
2023/12/15 16:08:10;;;;;;;6.00;2.53;;;;;;;7.47;66.93;101916.84;10508317;28;20036;-68
2023/12/15 16:13:12;;;;;;;4.25;2.47;;;;;;;7.51;66.74;101939.34;10509266;28;20170;-69
2023/12/15 16:18:15;;;;;;;3.55;2.00;;;;;;;7.53;66.61;101947.16;10493536;28;20495;-68
2023/12/15 16:23:19;;;;;;;4.55;2.80;;;;;;;7.50;66.76;101958.47;10509021;28;20147;-68
2023/12/15 16:28:22;;;;;;;7.38;3.25;;;;;;;7.54;66.79;101954.94;10488585;28;20044;-68
2023/12/15 16:33:24;;;;;;;5.78;3.30;;;;;;;7.52;66.64;101954.09;10509319;28;20432;-69
2023/12/15 16:38:26;;;;;;;4.82;2.60;;;;;;;7.53;66.70;101960.16;10476741;28;20413;-70
2023/12/15 16:43:31;;;;;;;4.30;2.60;;;;;;;7.57;66.51;101949.66;10506480;28;20652;-70
2023/12/15 16:48:33;;;;;;;5.63;2.50;;;;;;;7.53;66.73;101963.59;10491779;28;20044;-70
2023/12/15 16:53:35;;;;;;;12.68;2.72;;;;;;;7.59;66.65;101967.88;10508837;28;20068;-69
2023/12/15 16:58:38;;;;;;;5.15;2.55;;;;;;;7.66;66.45;101956.47;10495736;28;20403;-69
2023/12/15 17:03:41;;;;;;;4.47;2.53;;;;;;;7.66;66.47;101969.50;10516903;28;20052;-68
2023/12/15 17:08:44;;;;;;;6.60;2.10;;;;;;;7.67;66.42;101973.81;10514870;28;20055;-69
2023/12/15 17:13:46;;;;;;;3.67;2.00;;;;;;;7.62;66.42;101979.09;10499006;28;20137;-69
2023/12/15 17:18:49;;;;;;;4.32;2.50;;;;;;;7.49;66.71;101998.38;10512140;28;20056;-69
2023/12/15 17:23:52;;;;;;;6.50;2.85;;;;;;;7.48;66.65;102030.50;10496777;28;20074;-69
2023/12/15 17:28:54;;;;;;;8.35;2.50;;;;;;;7.50;66.67;102002.72;10508868;28;20135;-69
2023/12/15 17:33:56;;;;;;;5.40;2.13;;;;;;;7.45;66.68;101994.09;10496882;28;20519;-69
2023/12/15 17:38:59;;;;;;;4.43;2.42;;;;;;;7.45;66.73;101994.09;10515767;28;20470;-68
2023/12/15 17:44:01;;;;;;;5.18;2.60;;;;;;;7.40;66.81;101995.91;10514680;28;20154;-69
2023/12/15 17:49:03;;;;;;;6.90;3.33;;;;;;;7.37;66.79;101985.53;10513158;28;20046;-69
2023/12/15 17:54:07;;;;;;;4.72;2.25;;;;;;;7.47;66.59;101988.88;10498183;28;20135;-68
2023/12/15 17:59:09;;;;;;;4.15;2.63;;;;;;;7.44;66.82;101987.19;10495159;28;20067;-68
2023/12/15 18:04:12;;;;;;;4.53;2.55;;;;;;;7.44;66.70;101988.91;10514307;28;20082;-69
2023/12/15 18:09:17;;;;;;;4.43;2.25;;;;;;;7.42;66.74;102019.31;10497173;28;20059;-69
2023/12/15 18:14:20;;;;;;;5.82;2.15;;;;;;;7.42;66.69;102022.78;10514362;28;20044;-68
2023/12/15 18:19:22;;;;;;;6.30;2.78;;;;;;;7.48;66.56;102012.28;10481165;28;20093;-69
2023/12/15 18:24:24;;;;;;;5.40;2.95;;;;;;;7.45;66.59;102027.09;10514591;28;20047;-68
2023/12/15 18:29:26;;;;;;;4.25;2.17;;;;;;;7.33;66.72;102029.84;10510744;28;20085;-68
2023/12/15 18:34:29;;;;;;;5.07;2.67;;;;;;;7.15;66.94;102052.63;10513903;28;20036;-69
2023/12/15 18:39:33;;;;;;;5.60;2.35;;;;;;;7.10;67.06;102056.19;10512967;28;20048;-69
2023/12/15 18:44:35;;;;;;;4.63;2.58;;;;;;;6.95;67.59;102048.53;10511993;28;20329;-69
2023/12/15 18:49:38;;;;;;;5.80;2.90;;;;;;;6.97;67.56;102060.66;10508131;28;20551;-68
2023/12/15 18:54:40;;;;;;;5.82;3.08;;;;;;;7.04;67.43;102082.28;10492949;28;20036;-67
2023/12/15 18:59:42;;;;;;;5.13;2.42;;;;;;;7.00;67.38;102086.63;10512037;28;20043;-68
2023/12/15 19:04:46;;;;;;;5.28;2.63;;;;;;;6.89;67.56;102085.03;10502691;28;20100;-69
2023/12/15 19:09:50;;;;;;;4.78;2.65;;;;;;;6.81;67.84;102074.72;10510493;28;20048;-69
2023/12/15 19:14:54;;;;;;;6.18;2.97;;;;;;;6.79;68.04;102060.84;10490691;28;20040;-68
2023/12/15 19:19:57;;;;;;;5.28;2.70;;;;;;;6.89;67.85;102051.22;10510769;28;20098;-68
2023/12/15 19:24:59;;;;;;;4.05;2.28;;;;;;;6.90;67.78;102072.00;10511632;28;20079;-68
2023/12/15 19:30:07;;;;;;;6.32;2.50;;;;;;;6.83;67.92;102066.88;10508171;28;20040;-68
2023/12/15 19:35:11;;;;;;;5.55;2.80;;;;;;;6.87;67.77;102086.78;10510876;28;20048;-68
2023/12/15 19:40:17;;;;;;;5.60;2.42;;;;;;;6.93;67.74;102086.72;10511546;28;20059;-68
2023/12/15 19:45:21;;;;;;;4.70;2.53;;;;;;;6.95;67.52;102104.03;10509692;28;20163;-67
2023/12/15 19:50:24;;;;;;;5.45;2.40;;;;;;;6.87;67.63;102084.19;10510665;28;20388;-68
2023/12/15 19:55:29;;;;;;;5.63;2.90;;;;;;;6.78;67.73;102087.72;10509910;28;20044;-68
2023/12/15 20:00:33;;;;;;;4.97;2.50;;;;;;;6.70;68.16;102104.28;10508674;28;20644;-69
2023/12/15 20:05:35;;;;;;;5.80;2.83;;;;;;;6.72;68.13;102108.59;10488832;28;20159;-68
2023/12/15 20:10:37;;;;;;;4.65;2.50;;;;;;;6.66;68.16;102111.25;10505982;28;20039;-69
2023/12/15 20:15:39;;;;;;;5.53;2.78;;;;;;;6.69;68.17;102124.25;10475807;28;20040;-68
2023/12/15 20:20:42;;;;;;;6.05;2.85;;;;;;;6.76;68.10;102119.81;10510842;28;20040;-69
2023/12/15 20:25:51;;;;;;;4.88;2.83;;;;;;;6.91;67.69;102124.88;10475921;28;20071;-68
2023/12/15 20:30:56;;;;;;;5.10;2.22;;;;;;;6.82;67.76;102146.63;10508355;28;20048;-68
2023/12/15 20:35:58;;;;;;;5.53;2.75;;;;;;;6.65;68.03;102142.47;10515591;28;20048;-68
2023/12/15 20:41:01;;;;;;;4.88;2.65;;;;;;;6.69;68.21;102157.16;10517688;28;20059;-67
2023/12/15 20:46:07;;;;;;;4.60;2.33;;;;;;;6.63;68.32;102145.09;10518093;28;20431;-67
2023/12/15 20:51:15;;;;;;;3.92;2.30;;;;;;;6.73;68.00;102143.28;10489926;28;20044;-69
2023/12/15 20:56:30;;;;;;;5.68;2.60;;;;;;;6.68;67.89;102140.69;10498379;28;20172;-68
2023/12/15 21:01:35;;;;;;;6.03;3.10;;;;;;;6.62;68.17;102155.47;10484428;28;20047;-69
2023/12/15 21:06:37;;;;;;;4.82;2.47;;;;;;;6.61;68.01;102133.84;10517139;28;20211;-68
2023/12/15 21:11:45;;;;;;;4.72;2.40;;;;;;;6.71;68.00;102168.41;10508939;28;20491;-68
2023/12/15 21:16:48;;;;;;;5.63;2.40;;;;;;;6.73;67.70;102164.94;10513009;28;20146;-69
2023/12/15 21:21:50;;;;;;;5.43;2.58;;;;;;;6.68;67.54;102184.03;10513147;28;20129;-69
2023/12/15 21:26:56;;;;;;;7.53;2.50;;;;;;;6.71;67.44;102181.41;10517116;28;20059;-68
2023/12/15 21:32:00;;;;;;;5.85;2.80;;;;;;;6.67;67.62;102158.91;10481521;28;20082;-69
2023/12/15 21:37:02;;;;;;;5.72;2.70;;;;;;;6.75;67.36;102160.59;10479805;28;20148;-69
2023/12/15 21:42:04;;;;;;;3.85;1.92;;;;;;;6.84;67.10;102186.50;10515241;28;20491;-68
2023/12/15 21:47:08;;;;;;;6.35;2.80;;;;;;;6.72;67.23;102181.41;10517175;28;20059;-68
2023/12/15 21:52:10;;;;;;;7.97;2.22;;;;;;;6.71;67.11;102191.81;10497421;28;20052;-68
2023/12/15 21:57:12;;;;;;;7.60;2.83;;;;;;;6.61;67.35;102192.78;10515636;28;20519;-68
2023/12/15 22:02:15;;;;;;;4.90;2.22;;;;;;;6.63;67.11;102183.22;10516384;28;20051;-69
2023/12/15 22:07:17;;;;;;;6.25;2.50;;;;;;;6.55;67.41;102164.22;10515876;28;20528;-68
2023/12/15 22:12:19;;;;;;;5.28;2.67;;;;;;;6.49;67.38;102159.06;10516687;28;20496;-69
2023/12/15 22:17:21;;;;;;;4.88;2.20;;;;;;;6.48;67.60;102162.53;10515854;28;20115;-69
2023/12/15 22:22:24;;;;;;;3.92;1.92;;;;;;;6.59;67.36;102176.31;10516313;28;20455;-69
2023/12/15 22:27:26;;;;;;;8.95;2.50;;;;;;;6.62;67.24;102184.94;10515872;28;20295;-69
2023/12/15 22:32:28;;;;;;;9.25;2.40;;;;;;;6.61;67.02;102190.19;10478709;28;20086;-69
2023/12/15 22:37:30;;;;;;;8.18;2.50;;;;;;;6.59;67.05;102176.31;10469761;28;20048;-68
2023/12/15 22:42:32;;;;;;;10.00;2.55;;;;;;;6.59;67.25;102165.94;10505761;28;20274;-69
2023/12/15 22:47:35;;;;;;;4.38;2.38;;;;;;;6.74;66.98;102176.19;10475225;28;20136;-69
2023/12/15 22:52:38;;;;;;;5.28;2.47;;;;;;;6.72;66.53;102175.34;10472431;28;20552;-69
2023/12/15 22:57:42;;;;;;;3.78;2.20;;;;;;;6.76;66.59;102190.03;10470069;28;20082;-69
2023/12/15 23:02:44;;;;;;;5.18;3.22;;;;;;;6.80;66.61;102202.13;10462565;28;20284;-69
2023/12/15 23:07:46;;;;;;;7.55;3.10;;;;;;;6.86;66.24;102194.28;10470067;28;20587;-68
2023/12/15 23:12:48;;;;;;;6.22;2.75;;;;;;;6.69;66.39;102210.03;10453888;28;20055;-69
2023/12/15 23:17:50;;;;;;;8.27;3.15;;;;;;;6.63;66.55;102207.50;10471880;28;20052;-69
2023/12/15 23:22:53;;;;;;;7.85;2.53;;;;;;;6.72;66.51;102214.34;10471009;28;20051;-68
2023/12/15 23:27:55;;;;;;;6.00;2.67;;;;;;;6.82;66.36;102218.59;10469608;28;20309;-69